aviador You're here:

KMSN Decoded Metar

MADISON in WI, USA
Report Time2017-06-29 06:53:00
UTC Time2017-06-29 07:19:09
Flight Rules vfr VFR
Wind180° at 12 kt
W.Decomp.*RWY 18: 12.0 kt HW 0.6 kt RCW
RWY 21: 10.7 kt HW 5.4 kt LCW
RWY 14: 8.8 kt HW 8.2 kt RCW
W.Rank180° ranks 1
Current wind is above 180° avg. (8.3)
Visibility9999 m
Phenomena:N/A
Clouds:N/A
Expected CloudBase > 400 ft AGL from Temp-Dew spread
CeilingNone
Temp19°C (ISA +6)
Dew Point18°C (94% RH)
AAT17.5°C
QNH1004 hPa
Density Alt2,106 ft
Elevation856 ft
Report Wrong Elevation
Raw Report
METAR KMSN 290653Z AUTO 18012KT 10SM CLR 19/18 A2964 RMK AO2 RAB0557E13
PRESFR SLP033 P0000 T01890178=

Extra information for KMSN:More info

Metar Taf Metar & Taf Last 4 Metars F.Rules Stats Wind Profile Meteogram Temp Stats Airport Information Weather charts Add Link Nearby VenuesMetar ALERT Operation Metar Decoded Social comments

AIRNAV info for KMSN